createdAt,value
2023-04-12T00:00:53.064Z,100740.72
2023-04-12T00:03:19.702Z,100745.09
2023-04-12T00:05:46.969Z,100736.28
2023-04-12T00:08:13.719Z,100733.59
2023-04-12T00:10:40.308Z,100735.34
2023-04-12T00:13:06.819Z,100725.63
2023-04-12T00:15:33.391Z,100722.13
2023-04-12T00:17:59.951Z,100713.31
2023-04-12T00:20:26.595Z,100700.97
2023-04-12T00:22:53.086Z,100700.97
2023-04-12T00:25:19.706Z,100697.47
2023-04-12T00:27:46.200Z,100696.59
2023-04-12T00:30:12.782Z,100697.50
2023-04-12T00:32:39.334Z,100682.59
2023-04-12T00:35:06.286Z,100686.91
2023-04-12T00:37:33.169Z,100692.22
2023-04-12T00:39:59.736Z,100691.34
2023-04-12T00:42:26.272Z,100686.97
2023-04-12T00:44:52.857Z,100680.81
2023-04-12T00:47:19.425Z,100679.09
2023-04-12T00:49:45.967Z,100687.88
2023-04-12T00:52:13.153Z,100679.94
2023-04-12T00:54:39.670Z,100664.97
2023-04-12T00:57:06.209Z,100664.97
2023-04-12T00:59:32.723Z,100667.63
2023-04-12T01:01:59.566Z,100648.28
2023-04-12T01:04:26.689Z,100650.91
2023-04-12T01:07:11.974Z,100648.25
2023-04-12T01:10:08.057Z,100651.81
2023-04-12T01:12:46.535Z,100638.66
2023-04-12T01:15:14.163Z,100628.09
2023-04-12T01:17:50.445Z,100636.00
2023-04-12T01:20:22.618Z,100629.88
2023-04-12T01:23:26.108Z,100621.06
2023-04-12T01:26:40.747Z,100621.00
2023-04-12T01:29:17.205Z,100620.09
2023-04-12T01:31:59.127Z,100620.13
2023-04-12T01:34:26.822Z,100613.09
2023-04-12T01:36:53.440Z,100604.34
2023-04-12T01:39:19.982Z,100610.50
2023-04-12T01:41:46.480Z,100607.84
2023-04-12T01:44:13.920Z,100609.59
2023-04-12T01:46:40.507Z,100592.84
2023-04-12T01:49:06.997Z,100600.75
2023-04-12T01:52:01.427Z,100585.75
2023-04-12T01:54:29.308Z,100584.97
2023-04-12T01:57:00.603Z,100577.94
2023-04-12T01:59:28.649Z,100579.63
2023-04-12T02:01:55.243Z,100570.00
2023-04-12T02:04:21.782Z,100570.00
2023-04-12T02:06:48.316Z,100572.63
2023-04-12T02:09:14.816Z,100566.50
2023-04-12T02:11:41.501Z,100558.56
2023-04-12T02:14:07.978Z,100553.28
2023-04-12T02:16:34.716Z,100546.16
2023-04-12T02:19:01.330Z,100542.72
2023-04-12T02:21:28.000Z,100541.00
2023-04-12T02:23:54.952Z,100528.75
2023-04-12T02:26:21.716Z,100527.84
2023-04-12T02:28:48.221Z,100534.88
2023-04-12T02:31:14.798Z,100529.56
2023-04-12T02:33:41.322Z,100525.22
2023-04-12T02:36:09.900Z,100514.69
2023-04-12T02:38:36.428Z,100513.81
2023-04-12T02:41:02.987Z,100504.13
2023-04-12T02:43:29.560Z,100489.16
2023-04-12T02:45:56.128Z,100482.13
2023-04-12T02:48:22.768Z,100477.69
2023-04-12T02:50:49.295Z,100471.53
2023-04-12T02:53:16.402Z,100461.84
2023-04-12T02:55:42.966Z,100459.16
2023-04-12T02:58:09.523Z,100449.53
2023-04-12T03:00:36.070Z,100453.94
2023-04-12T03:03:02.883Z,100437.22
2023-04-12T03:05:29.640Z,100428.44
2023-04-12T03:07:56.159Z,100423.16
2023-04-12T03:10:22.710Z,100418.66
2023-04-12T03:12:49.260Z,100421.28
2023-04-12T03:15:15.792Z,100409.88
2023-04-12T03:17:42.365Z,100409.84
2023-04-12T03:20:09.416Z,100396.66
2023-04-12T03:22:38.996Z,100396.66
2023-04-12T03:25:05.884Z,100392.25
2023-04-12T03:27:32.559Z,100395.75
2023-04-12T03:29:59.072Z,100389.63
2023-04-12T03:32:25.939Z,100381.75
2023-04-12T03:34:52.473Z,100375.59
2023-04-12T03:37:19.056Z,100387.91
2023-04-12T03:39:45.644Z,100375.59
2023-04-12T03:42:25.482Z,100380.00
2023-04-12T03:44:58.724Z,100372.94
2023-04-12T03:47:25.257Z,100368.50
2023-04-12T03:50:06.038Z,100356.25
2023-04-12T03:52:36.692Z,100351.91
2023-04-12T03:55:03.258Z,100343.97
2023-04-12T03:57:29.801Z,100333.41
2023-04-12T03:59:56.337Z,100335.06
2023-04-12T04:02:23.104Z,100327.16
2023-04-12T04:04:49.812Z,100321.03
2023-04-12T04:07:16.304Z,100308.75
2023-04-12T04:09:42.824Z,100301.75
2023-04-12T04:12:09.342Z,100304.38
2023-04-12T04:14:35.832Z,100295.53
2023-04-12T04:17:02.366Z,100284.16
2023-04-12T04:19:28.857Z,100280.63
2023-04-12T04:21:55.404Z,100279.72
2023-04-12T04:24:21.944Z,100285.88
2023-04-12T04:26:48.496Z,100277.09
2023-04-12T04:29:15.031Z,100277.97
2023-04-12T04:31:41.612Z,100275.34
2023-04-12T04:34:08.149Z,100272.78
2023-04-12T04:36:35.212Z,100270.19
2023-04-12T04:39:01.921Z,100274.47
2023-04-12T04:41:28.458Z,100264.72
2023-04-12T04:43:55.259Z,100260.34
2023-04-12T04:46:21.906Z,100255.06
2023-04-12T04:48:50.493Z,100248.00
2023-04-12T04:51:17.252Z,100242.63
2023-04-12T04:53:43.913Z,100240.88
2023-04-12T04:56:10.792Z,100236.47
2023-04-12T04:58:37.466Z,100226.88
2023-04-12T05:01:04.045Z,100230.38
2023-04-12T05:03:31.219Z,100231.28
2023-04-12T05:05:57.900Z,100233.84
2023-04-12T05:08:24.418Z,100232.09
2023-04-12T05:10:51.751Z,100232.09
2023-04-12T05:13:18.780Z,100226.75
2023-04-12T05:15:45.379Z,100224.97
2023-04-12T05:18:13.240Z,100237.34
2023-04-12T05:20:39.836Z,100224.13
2023-04-12T05:23:06.365Z,100216.16
2023-04-12T05:25:32.942Z,100208.97
2023-04-12T05:27:59.482Z,100212.38
2023-04-12T05:30:25.975Z,100202.59
2023-04-12T05:32:52.637Z,100198.97
2023-04-12T05:35:19.331Z,100198.00
2023-04-12T05:37:45.986Z,100183.91
2023-04-12T05:40:12.645Z,100178.59
2023-04-12T05:42:39.201Z,100180.31
2023-04-12T05:45:06.101Z,100178.50
2023-04-12T05:47:32.681Z,100183.78
2023-04-12T05:49:59.192Z,100188.06
2023-04-12T05:52:25.803Z,100174.72
2023-04-12T05:54:52.709Z,100176.44
2023-04-12T05:57:19.226Z,100159.66
2023-04-12T05:59:45.843Z,100163.09
2023-04-12T06:02:12.518Z,100156.91
2023-04-12T06:04:50.032Z,100153.31
2023-04-12T06:07:17.661Z,100147.88
2023-04-12T06:09:44.210Z,100150.38
2023-04-12T06:12:10.743Z,100145.78
2023-04-12T06:14:37.286Z,100145.72
2023-04-12T06:17:03.825Z,100135.88
2023-04-12T06:19:30.353Z,100131.44
2023-04-12T06:21:56.918Z,100124.28
2023-04-12T06:24:23.419Z,100122.34
2023-04-12T06:26:49.964Z,100122.19
2023-04-12T06:29:16.487Z,100124.75
2023-04-12T06:31:43.073Z,100128.19
2023-04-12T06:34:09.685Z,100129.75
2023-04-12T06:36:36.284Z,100116.31
2023-04-12T06:39:02.850Z,100109.69
2023-04-12T06:41:29.405Z,100106.72
2023-04-12T06:43:55.969Z,100092.31
2023-04-12T06:46:26.454Z,100092.66
2023-04-12T06:48:53.061Z,100082.47
2023-04-12T06:51:19.603Z,100089.94
2023-04-12T06:53:46.153Z,100090.34
2023-04-12T06:56:12.720Z,100095.41
2023-04-12T06:58:39.377Z,100095.00
2023-04-12T07:01:08.809Z,100085.69
2023-04-12T07:03:35.560Z,100081.81
2023-04-12T07:06:07.694Z,100081.63
2023-04-12T07:08:44.063Z,100079.81
2023-04-12T07:13:41.097Z,100072.78
2023-04-12T07:16:07.959Z,100067.47
2023-04-12T07:18:34.504Z,100067.53
2023-04-12T07:21:01.064Z,100065.63
2023-04-12T07:23:27.584Z,100055.88
2023-04-12T07:25:54.124Z,100054.94
2023-04-12T07:28:20.710Z,100052.16
2023-04-12T07:30:47.304Z,100052.97
2023-04-12T07:33:19.575Z,100046.72
2023-04-12T07:35:46.599Z,100047.38
2023-04-12T07:38:15.037Z,100033.88
2023-04-12T07:40:43.181Z,100031.03
2023-04-12T07:43:09.681Z,100036.34
2023-04-12T07:45:36.974Z,100029.22
2023-04-12T07:48:03.795Z,100026.50
2023-04-12T07:50:30.344Z,100023.72
2023-04-12T07:53:18.263Z,100019.94
2023-04-12T07:55:44.789Z,100017.22
2023-04-12T07:58:11.306Z,100019.75
2023-04-12T08:00:37.806Z,100007.19
2023-04-12T08:03:04.527Z,100008.88
2023-04-12T08:05:31.313Z,99998.13
2023-04-12T08:07:57.866Z,99995.44
2023-04-12T08:10:24.482Z,99984.75
2023-04-12T08:12:52.207Z,99969.63
2023-04-12T08:15:18.766Z,99969.63
2023-04-12T08:17:45.401Z,99960.69
2023-04-12T08:20:12.224Z,99954.50
2023-04-12T08:22:38.732Z,99955.41
2023-04-12T08:25:05.707Z,99949.19
2023-04-12T08:27:32.240Z,99942.81
2023-04-12T08:29:58.788Z,99951.56
2023-04-12T08:32:25.362Z,99940.06
2023-04-12T08:34:51.886Z,99940.69
2023-04-12T08:37:18.456Z,99929.00
2023-04-12T08:39:44.985Z,99920.03
2023-04-12T08:42:11.499Z,99915.50
2023-04-12T08:44:38.815Z,99911.00
2023-04-12T08:47:06.111Z,99903.78
2023-04-12T08:49:33.029Z,99895.63
2023-04-12T08:52:08.906Z,99883.84
2023-04-12T08:54:35.484Z,99874.78
2023-04-12T08:57:03.935Z,99886.03
2023-04-12T08:59:30.985Z,99873.41
2023-04-12T09:01:58.107Z,99874.22
2023-04-12T09:04:25.253Z,99868.69
2023-04-12T09:06:52.082Z,99867.47
2023-04-12T09:09:18.696Z,99861.84
2023-04-12T09:11:45.279Z,99870.44
2023-04-12T09:14:25.087Z,99855.22
2023-04-12T09:16:51.771Z,99853.38
2023-04-12T09:19:31.170Z,99849.84
2023-04-12T09:21:57.726Z,99838.22
2023-04-12T09:24:24.317Z,99833.47
2023-04-12T09:27:06.238Z,99815.31
2023-04-12T09:29:33.428Z,99813.34
2023-04-12T09:32:07.511Z,99812.53
2023-04-12T09:34:34.876Z,99815.38
2023-04-12T09:37:13.211Z,99806.53
2023-04-12T09:39:40.737Z,99796.97
2023-04-12T09:42:18.134Z,99789.84
2023-04-12T09:44:53.054Z,99787.91
2023-04-12T09:47:19.704Z,99786.16
2023-04-12T09:49:46.404Z,99789.34
2023-04-12T09:52:14.240Z,99786.50
2023-04-12T09:54:45.142Z,99788.31
2023-04-12T09:57:12.302Z,99789.00
2023-04-12T09:59:40.245Z,99785.97
2023-04-12T10:02:08.135Z,99782.19
2023-04-12T10:04:36.548Z,99767.78
2023-04-12T10:07:03.182Z,99768.66
2023-04-12T10:09:29.774Z,99769.41
2023-04-12T10:11:56.238Z,99755.09
2023-04-12T10:14:22.861Z,99758.41
2023-04-12T10:16:49.376Z,99752.00
2023-04-12T10:19:15.944Z,99750.16
2023-04-12T10:21:42.503Z,99750.84
2023-04-12T10:24:09.664Z,99750.66
2023-04-12T10:26:36.153Z,99754.13
2023-04-12T10:29:31.130Z,99751.16
2023-04-12T10:31:59.093Z,99741.94
2023-04-12T10:34:30.266Z,99747.13
2023-04-12T10:37:00.324Z,99744.59
2023-04-12T10:39:39.050Z,99726.16
2023-04-12T10:42:27.773Z,99745.56
2023-04-12T10:44:56.566Z,99743.03
2023-04-12T10:47:42.374Z,99747.91
2023-04-12T10:50:23.033Z,99745.81
2023-04-12T10:53:22.092Z,99737.69
2023-04-12T10:55:48.584Z,99743.66
2023-04-12T10:58:49.366Z,99745.78
2023-04-12T11:01:16.147Z,99740.91
2023-04-12T11:04:21.997Z,99745.78
2023-04-12T11:06:59.087Z,99752.63
2023-04-12T11:09:30.343Z,99749.34
2023-04-12T11:12:03.498Z,99743.50
2023-04-12T11:14:45.543Z,99741.16
2023-04-12T11:17:15.076Z,99744.13
2023-04-12T11:19:42.434Z,99746.78
2023-04-12T11:22:15.543Z,99750.56
2023-04-12T11:24:46.416Z,99753.41
2023-04-12T11:27:13.013Z,99764.84
2023-04-12T11:29:39.621Z,99757.94
2023-04-12T11:32:06.490Z,99749.09
2023-04-12T11:34:33.754Z,99753.69
2023-04-12T11:37:00.361Z,99739.63
2023-04-12T11:39:27.227Z,99745.91
2023-04-12T11:41:53.877Z,99753.88
2023-04-12T11:44:20.469Z,99744.19
2023-04-12T11:46:47.041Z,99741.75
2023-04-12T11:49:19.864Z,99736.06
2023-04-12T11:51:49.483Z,99736.19
2023-04-12T11:54:16.196Z,99731.84
2023-04-12T11:56:42.713Z,99732.72
2023-04-12T11:59:09.250Z,99733.44
2023-04-12T12:01:35.884Z,99725.19
2023-04-12T12:04:02.786Z,99726.78
2023-04-12T12:06:29.886Z,99724.88
2023-04-12T12:08:57.049Z,99719.34
2023-04-12T12:11:23.996Z,99716.41
2023-04-12T12:13:52.067Z,99706.41
2023-04-12T12:16:19.031Z,99711.59
2023-04-12T12:18:46.717Z,99705.53
2023-04-12T12:21:13.574Z,99706.47
2023-04-12T12:23:45.242Z,99700.34
2023-04-12T12:26:32.013Z,99701.38
2023-04-12T12:28:58.567Z,99700.56
2023-04-12T12:31:26.216Z,99699.69
2023-04-12T12:33:56.562Z,99695.25
2023-04-12T12:36:33.307Z,99685.31
2023-04-12T12:39:10.014Z,99686.16
2023-04-12T12:41:36.709Z,99672.84
2023-04-12T12:44:03.331Z,99679.97
2023-04-12T12:46:44.662Z,99673.81
2023-04-12T12:49:16.423Z,99666.69
2023-04-12T12:51:43.129Z,99670.34
2023-04-12T12:54:09.699Z,99663.22
2023-04-12T12:56:36.240Z,99655.19
2023-04-12T12:59:02.751Z,99652.34
2023-04-12T13:01:29.369Z,99644.06
2023-04-12T13:03:56.127Z,99641.19
2023-04-12T13:06:23.139Z,99648.06
2023-04-12T13:08:49.827Z,99647.78
2023-04-12T13:11:17.926Z,99637.09
2023-04-12T13:13:44.989Z,99637.81
2023-04-12T13:16:11.656Z,99633.38
2023-04-12T13:18:38.341Z,99624.47
2023-04-12T13:21:05.039Z,99623.66
2023-04-12T13:23:31.541Z,99616.53
2023-04-12T13:25:58.104Z,99614.75
2023-04-12T13:28:24.608Z,99613.94
2023-04-12T13:30:51.146Z,99622.91
2023-04-12T13:33:21.003Z,99614.28
2023-04-12T13:35:48.413Z,99611.03
2023-04-12T13:38:14.935Z,99605.69
2023-04-12T13:40:41.517Z,99606.69
2023-04-12T13:43:07.998Z,99594.19
2023-04-12T13:45:34.559Z,99596.59
2023-04-12T13:48:01.205Z,99595.81
2023-04-12T13:50:27.829Z,99597.38
2023-04-12T13:52:54.372Z,99598.97
2023-04-12T13:55:20.907Z,99595.31
2023-04-12T13:57:47.414Z,99587.22
2023-04-12T14:00:14.545Z,99581.75
2023-04-12T14:02:41.234Z,99587.06
2023-04-12T14:05:08.404Z,99578.16
2023-04-12T14:07:35.102Z,99573.63
2023-04-12T14:10:01.615Z,99577.22
2023-04-12T14:12:28.137Z,99571.91
2023-04-12T14:14:54.720Z,99580.00
2023-04-12T14:17:21.353Z,99581.97
2023-04-12T14:19:48.009Z,99583.88
2023-04-12T14:22:14.616Z,99576.72
2023-04-12T14:24:41.168Z,99576.72
2023-04-12T14:27:07.789Z,99577.69
2023-04-12T14:29:34.340Z,99576.84
2023-04-12T14:32:00.861Z,99572.31
2023-04-12T14:34:27.468Z,99577.50
2023-04-12T14:36:54.982Z,99557.09
2023-04-12T14:39:21.483Z,99555.06
2023-04-12T14:41:48.051Z,99550.47
2023-04-12T14:44:14.596Z,99548.75
2023-04-12T14:46:41.126Z,99549.56
2023-04-12T14:49:08.118Z,99535.31
2023-04-12T14:51:34.646Z,99543.22
2023-04-12T14:54:01.363Z,99537.81
2023-04-12T14:56:30.115Z,99534.38
2023-04-12T14:58:57.650Z,99532.00
2023-04-12T15:01:24.633Z,99527.72
2023-04-12T15:03:54.217Z,99528.69
2023-04-12T15:06:21.930Z,99535.72
2023-04-12T15:08:50.462Z,99530.56
2023-04-12T15:11:16.994Z,99530.50
2023-04-12T15:13:43.565Z,99528.47
2023-04-12T15:16:10.735Z,99528.41
2023-04-12T15:18:37.985Z,99517.75
2023-04-12T15:21:06.750Z,99520.34
2023-04-12T15:23:33.324Z,99521.16
2023-04-12T15:25:59.866Z,99517.63
2023-04-12T15:28:26.445Z,99524.59
2023-04-12T15:30:56.102Z,99525.38
2023-04-12T15:33:22.585Z,99513.16
2023-04-12T15:35:49.330Z,99515.09
2023-04-12T15:38:20.913Z,99508.91
2023-04-12T15:40:54.206Z,99507.13
2023-04-12T15:43:20.741Z,99508.72
2023-04-12T15:45:47.316Z,99504.75
2023-04-12T15:48:13.854Z,99507.97
2023-04-12T15:50:40.375Z,99506.13
2023-04-12T15:53:07.147Z,99506.19
2023-04-12T15:55:33.704Z,99505.19
2023-04-12T15:58:00.259Z,99503.38
2023-04-12T16:00:26.821Z,99498.94
2023-04-12T16:02:53.943Z,99499.56
2023-04-12T16:05:21.009Z,99500.50
2023-04-12T16:07:47.568Z,99491.88
2023-04-12T16:10:14.077Z,99510.00
2023-04-12T16:12:40.597Z,99498.50
2023-04-12T16:15:07.462Z,99496.84
2023-04-12T16:17:34.063Z,99493.25
2023-04-12T16:20:00.611Z,99492.31
2023-04-12T16:22:27.131Z,99497.84
2023-04-12T16:24:53.649Z,99490.94
2023-04-12T16:27:23.097Z,99497.41
2023-04-12T16:29:50.081Z,99501.84
2023-04-12T16:32:16.667Z,99500.19
2023-04-12T16:34:43.211Z,99497.47
2023-04-12T16:37:09.723Z,99491.44
2023-04-12T16:39:36.226Z,99495.91
2023-04-12T16:42:02.805Z,99489.72
2023-04-12T16:44:29.375Z,99494.97
2023-04-12T16:46:56.124Z,99490.50
2023-04-12T16:49:22.688Z,99478.06
2023-04-12T16:51:50.248Z,99479.78
2023-04-12T16:54:16.893Z,99474.63
2023-04-12T16:56:43.398Z,99471.22
2023-04-12T16:59:09.968Z,99473.81
2023-04-12T17:01:36.504Z,99472.09
2023-04-12T17:04:03.294Z,99480.22
2023-04-12T17:06:33.008Z,99474.19
2023-04-12T17:09:00.145Z,99481.13
2023-04-12T17:11:26.915Z,99473.16
2023-04-12T17:13:53.444Z,99469.69
2023-04-12T17:16:20.027Z,99456.50
2023-04-12T17:18:46.587Z,99458.22
2023-04-12T17:21:14.763Z,99453.84
2023-04-12T17:23:41.241Z,99450.38
2023-04-12T17:26:08.224Z,99447.72
2023-04-12T17:28:34.845Z,99436.22
2023-04-12T17:31:01.719Z,99436.22
2023-04-12T17:33:29.194Z,99435.22
2023-04-12T17:35:55.746Z,99437.94
2023-04-12T17:38:22.312Z,99432.63
2023-04-12T17:40:48.836Z,99436.94
2023-04-12T17:43:15.365Z,99444.13
2023-04-12T17:45:41.939Z,99436.22
2023-04-12T17:48:08.629Z,99440.75
2023-04-12T17:50:35.277Z,99449.72
2023-04-12T17:53:01.788Z,99439.16
2023-04-12T17:55:28.313Z,99441.91
2023-04-12T17:57:54.875Z,99437.34
2023-04-12T18:00:21.522Z,99448.00
2023-04-12T18:02:48.211Z,99444.41
2023-04-12T18:05:14.803Z,99445.50
2023-04-12T18:07:41.372Z,99441.75
2023-04-12T18:10:08.842Z,99447.91
2023-04-12T18:12:35.526Z,99446.13
2023-04-12T18:15:02.007Z,99436.41
2023-04-12T18:17:28.565Z,99431.09
2023-04-12T18:19:55.114Z,99443.53
2023-04-12T18:22:21.787Z,99444.41
2023-04-12T18:24:48.356Z,99445.25
2023-04-12T18:27:14.941Z,99444.25
2023-04-12T18:29:41.409Z,99452.25
2023-04-12T18:32:07.942Z,99456.75
2023-04-12T18:34:34.506Z,99467.53
2023-04-12T18:37:01.025Z,99480.06
2023-04-12T18:39:27.580Z,99481.78
2023-04-12T18:41:54.220Z,99488.81
2023-04-12T18:44:20.744Z,99481.13
2023-04-12T18:46:47.394Z,99485.56
2023-04-12T18:49:13.919Z,99490.09
2023-04-12T18:51:40.447Z,99493.75
2023-04-12T18:54:07.260Z,99503.31
2023-04-12T18:56:33.821Z,99499.38
2023-04-12T18:59:00.333Z,99497.88
2023-04-12T19:01:27.848Z,99492.81
2023-04-12T19:03:54.503Z,99510.38
2023-04-12T19:06:21.178Z,99502.59
2023-04-12T19:08:48.205Z,99509.69
2023-04-12T19:11:14.780Z,99521.81
2023-04-12T19:13:41.258Z,99532.50
2023-04-12T19:16:08.138Z,99531.66
2023-04-12T19:18:35.342Z,99544.13
2023-04-12T19:21:01.892Z,99540.56
2023-04-12T19:23:28.423Z,99540.69
2023-04-12T19:25:54.921Z,99540.00
2023-04-12T19:28:21.405Z,99547.97
2023-04-12T19:30:48.245Z,99563.28
2023-04-12T19:33:14.841Z,99572.03
2023-04-12T19:35:42.262Z,99575.16
2023-04-12T19:38:08.757Z,99563.56
2023-04-12T19:40:35.351Z,99575.91
2023-04-12T19:43:02.247Z,99577.34
2023-04-12T19:45:28.850Z,99576.09
2023-04-12T19:47:55.472Z,99579.81
2023-04-12T19:50:22.010Z,99577.38
2023-04-12T19:52:48.606Z,99568.91
2023-04-12T19:55:15.543Z,99564.50
2023-04-12T19:57:42.202Z,99569.75
2023-04-12T20:00:09.908Z,99568.84
2023-04-12T20:02:37.431Z,99558.41
2023-04-12T20:05:04.794Z,99549.00
2023-04-12T20:07:31.324Z,99542.88
2023-04-12T20:09:57.838Z,99558.69
2023-04-12T20:12:24.357Z,99561.34
2023-04-12T20:14:50.938Z,99553.38
2023-04-12T20:17:17.518Z,99542.97
2023-04-12T20:19:44.084Z,99538.75
2023-04-12T20:22:10.605Z,99542.31
2023-04-12T20:24:37.139Z,99536.34
2023-04-12T20:27:03.738Z,99534.56
2023-04-12T20:29:31.643Z,99539.97
2023-04-12T20:31:58.164Z,99542.75
2023-04-12T20:34:24.739Z,99530.31
2023-04-12T20:36:51.297Z,99533.84
2023-04-12T20:39:17.876Z,99534.75
2023-04-12T20:41:44.413Z,99540.94
2023-04-12T20:44:10.887Z,99553.25
2023-04-12T20:46:37.546Z,99555.97
2023-04-12T20:49:04.135Z,99560.50
2023-04-12T20:51:30.671Z,99548.34
2023-04-12T20:53:57.147Z,99551.06
2023-04-12T20:56:25.235Z,99546.47
2023-04-12T20:58:51.719Z,99544.72
2023-04-12T21:01:18.238Z,99537.00
2023-04-12T21:03:44.977Z,99540.63
2023-04-12T21:06:11.659Z,99541.72
2023-04-12T21:08:38.276Z,99542.03
2023-04-12T21:11:04.942Z,99531.78
2023-04-12T21:13:31.456Z,99544.09
2023-04-12T21:15:58.090Z,99551.28
2023-04-12T21:18:24.679Z,99562.16
2023-04-12T21:20:51.212Z,99568.47
2023-04-12T21:23:17.983Z,99567.78
2023-04-12T21:25:46.497Z,99569.69
2023-04-12T21:28:13.027Z,99573.31
2023-04-12T21:30:39.732Z,99570.88
2023-04-12T21:33:06.283Z,99580.75
2023-04-12T21:35:32.972Z,99583.53
2023-04-12T21:37:59.493Z,99591.34
2023-04-12T21:40:26.121Z,99593.34
2023-04-12T21:42:52.765Z,99598.50
2023-04-12T21:45:19.295Z,99590.69
2023-04-12T21:47:45.868Z,99603.16
2023-04-12T21:50:12.552Z,99616.50
2023-04-12T21:52:39.135Z,99620.25
2023-04-12T21:55:05.836Z,99629.97
2023-04-12T21:57:32.629Z,99628.31
2023-04-12T21:59:59.165Z,99631.03
2023-04-12T22:02:25.973Z,99628.47
2023-04-12T22:04:52.654Z,99619.75
2023-04-12T22:07:19.277Z,99615.56
2023-04-12T22:09:45.907Z,99616.53
2023-04-12T22:12:12.639Z,99620.75
2023-04-12T22:14:39.744Z,99614.59
2023-04-12T22:17:06.334Z,99621.53
2023-04-12T22:19:32.859Z,99616.38
2023-04-12T22:21:59.453Z,99619.00
2023-04-12T22:24:26.037Z,99615.50
2023-04-12T22:26:52.551Z,99621.66
2023-04-12T22:29:19.062Z,99622.47
2023-04-12T22:31:45.576Z,99619.72
2023-04-12T22:34:12.080Z,99616.13
2023-04-12T22:36:38.644Z,99620.53
2023-04-12T22:39:05.170Z,99626.69
2023-04-12T22:41:31.786Z,99624.06
2023-04-12T22:43:58.933Z,99625.91
2023-04-12T22:46:25.643Z,99624.19
2023-04-12T22:48:52.261Z,99619.09
2023-04-12T22:51:18.799Z,99622.81
2023-04-12T22:53:45.296Z,99619.38
2023-04-12T22:56:11.809Z,99617.72
2023-04-12T22:58:38.437Z,99617.84
2023-04-12T23:01:05.278Z,99619.50
2023-04-12T23:03:31.858Z,99614.13
2023-04-12T23:05:58.420Z,99611.47
2023-04-12T23:08:24.943Z,99604.50
2023-04-12T23:10:51.424Z,99608.16
2023-04-12T23:13:17.999Z,99595.13
2023-04-12T23:15:44.576Z,99595.31
2023-04-12T23:18:11.178Z,99601.56
2023-04-12T23:20:38.148Z,99589.41
2023-04-12T23:23:04.702Z,99599.84
2023-04-12T23:25:33.205Z,99598.16
2023-04-12T23:27:59.754Z,99609.59
2023-04-12T23:30:26.227Z,99615.75
2023-04-12T23:32:52.782Z,99614.00
2023-04-12T23:35:19.323Z,99615.88
2023-04-12T23:37:45.854Z,99621.16
2023-04-12T23:40:12.685Z,99613.28
2023-04-12T23:42:39.244Z,99621.16
2023-04-12T23:45:06.544Z,99628.22
2023-04-12T23:47:33.109Z,99616.75
2023-04-12T23:49:59.629Z,99613.22
2023-04-12T23:52:26.157Z,99609.59
2023-04-12T23:54:52.645Z,99615.88
2023-04-12T23:57:19.204Z,99602.84
2023-04-12T23:59:45.726Z,99615.00
